sensor_id;sensor_type;location;lat;lon;timestamp;pressure;altitude;pressure_sealevel;temperature;humidity
35918;BME280;22011;59.912;30.300;2023-02-05T00:01:37;103094.47;;;-0.99;65.34
35918;BME280;22011;59.912;30.300;2023-02-05T00:04:04;103102.31;;;-0.99;65.39
35918;BME280;22011;59.912;30.300;2023-02-05T00:06:32;103101.41;;;-0.98;65.94
35918;BME280;22011;59.912;30.300;2023-02-05T00:08:59;103091.88;;;-1.00;66.29
35918;BME280;22011;59.912;30.300;2023-02-05T00:11:28;103096.19;;;-0.98;66.75
35918;BME280;22011;59.912;30.300;2023-02-05T00:13:56;103089.47;;;-1.08;65.92
35918;BME280;22011;59.912;30.300;2023-02-05T00:16:24;103099.97;;;-1.09;65.29
35918;BME280;22011;59.912;30.300;2023-02-05T00:18:52;103105.25;;;-1.12;65.14
35918;BME280;22011;59.912;30.300;2023-02-05T00:21:21;103101.78;;;-1.13;66.02
35918;BME280;22011;59.912;30.300;2023-02-05T00:23:49;103107.00;;;-1.13;66.17
35918;BME280;22011;59.912;30.300;2023-02-05T00:26:17;103107.81;;;-1.09;66.10
35918;BME280;22011;59.912;30.300;2023-02-05T00:28:46;103104.31;;;-1.08;65.83
35918;BME280;22011;59.912;30.300;2023-02-05T00:31:15;103092.91;;;-1.06;65.26
35918;BME280;22011;59.912;30.300;2023-02-05T00:33:45;103087.72;;;-1.07;64.51
35918;BME280;22011;59.912;30.300;2023-02-05T00:36:13;103088.63;;;-1.10;63.28
35918;BME280;22011;59.912;30.300;2023-02-05T00:38:42;103087.00;;;-1.15;62.70
35918;BME280;22011;59.912;30.300;2023-02-05T00:41:10;103083.63;;;-1.20;63.93
35918;BME280;22011;59.912;30.300;2023-02-05T00:43:37;103094.09;;;-1.20;63.89
35918;BME280;22011;59.912;30.300;2023-02-05T00:46:07;103094.84;;;-1.14;63.12
35918;BME280;22011;59.912;30.300;2023-02-05T00:48:35;103092.28;;;-1.17;64.37
35918;BME280;22011;59.912;30.300;2023-02-05T00:51:03;103094.09;;;-1.20;63.79
35918;BME280;22011;59.912;30.300;2023-02-05T00:53:31;103098.41;;;-1.18;64.13
35918;BME280;22011;59.912;30.300;2023-02-05T00:55:58;103095.06;;;-1.24;63.92
35918;BME280;22011;59.912;30.300;2023-02-05T00:58:26;103099.47;;;-1.26;63.53
35918;BME280;22011;59.912;30.300;2023-02-05T01:00:56;103102.94;;;-1.26;64.94
35918;BME280;22011;59.912;30.300;2023-02-05T01:03:25;103103.81;;;-1.27;65.10
35918;BME280;22011;59.912;30.300;2023-02-05T01:05:53;103097.78;;;-1.29;63.78
35918;BME280;22011;59.912;30.300;2023-02-05T01:08:20;103097.91;;;-1.35;64.07
35918;BME280;22011;59.912;30.300;2023-02-05T01:10:49;103095.41;;;-1.41;64.78
35918;BME280;22011;59.912;30.300;2023-02-05T01:13:17;103098.91;;;-1.42;65.09
35918;BME280;22011;59.912;30.300;2023-02-05T01:15:45;103099.88;;;-1.46;64.06
35918;BME280;22011;59.912;30.300;2023-02-05T01:18:13;103101.81;;;-1.56;64.81
35918;BME280;22011;59.912;30.300;2023-02-05T01:20:42;103107.16;;;-1.62;65.17
35918;BME280;22011;59.912;30.300;2023-02-05T01:23:10;103109.06;;;-1.70;65.06
35918;BME280;22011;59.912;30.300;2023-02-05T01:25:38;103101.19;;;-1.69;65.05
35918;BME280;22011;59.912;30.300;2023-02-05T01:28:05;103113.44;;;-1.72;63.79
35918;BME280;22011;59.912;30.300;2023-02-05T01:30:33;103111.75;;;-1.75;63.62
35918;BME280;22011;59.912;30.300;2023-02-05T01:33:01;103120.47;;;-1.76;63.41
35918;BME280;22011;59.912;30.300;2023-02-05T01:35:29;103106.47;;;-1.72;64.53
35918;BME280;22011;59.912;30.300;2023-02-05T01:37:58;103113.41;;;-1.71;63.54
35918;BME280;22011;59.912;30.300;2023-02-05T01:40:26;103114.34;;;-1.73;63.31
35918;BME280;22011;59.912;30.300;2023-02-05T01:42:54;103113.53;;;-1.77;63.14
35918;BME280;22011;59.912;30.300;2023-02-05T01:45:43;103116.69;;;-1.59;63.54
35918;BME280;22011;59.912;30.300;2023-02-05T01:48:17;103118.69;;;-1.74;63.24
35918;BME280;22011;59.912;30.300;2023-02-05T01:50:48;103112.78;;;-1.83;62.91
35918;BME280;22011;59.912;30.300;2023-02-05T01:53:23;103099.78;;;-1.86;64.32
35918;BME280;22011;59.912;30.300;2023-02-05T01:55:54;103101.69;;;-1.96;64.47
35918;BME280;22011;59.912;30.300;2023-02-05T01:58:25;103098.19;;;-1.95;65.06
35918;BME280;22011;59.912;30.300;2023-02-05T02:00:53;103106.03;;;-1.95;65.50
35918;BME280;22011;59.912;30.300;2023-02-05T02:03:22;103098.09;;;-1.90;64.30
35918;BME280;22011;59.912;30.300;2023-02-05T02:05:53;103098.13;;;-1.92;64.81
35918;BME280;22011;59.912;30.300;2023-02-05T02:08:22;103099.91;;;-1.94;65.56
35918;BME280;22011;59.912;30.300;2023-02-05T02:10:50;103108.69;;;-1.98;65.87
35918;BME280;22011;59.912;30.300;2023-02-05T02:13:19;103105.22;;;-1.99;65.86
35918;BME280;22011;59.912;30.300;2023-02-05T02:15:48;103107.75;;;-1.94;65.72
35918;BME280;22011;59.912;30.300;2023-02-05T02:18:17;103110.31;;;-1.91;65.23
35918;BME280;22011;59.912;30.300;2023-02-05T02:21:24;103110.16;;;-1.83;65.43
35918;BME280;22011;59.912;30.300;2023-02-05T02:24:16;103105.69;;;-1.77;64.82
35918;BME280;22011;59.912;30.300;2023-02-05T02:27:04;103105.72;;;-1.78;65.35
35918;BME280;22011;59.912;30.300;2023-02-05T02:29:46;103110.97;;;-1.80;65.10
35918;BME280;22011;59.912;30.300;2023-02-05T02:32:20;103111.09;;;-1.86;64.81
35918;BME280;22011;59.912;30.300;2023-02-05T02:34:55;103115.44;;;-1.85;64.98
35918;BME280;22011;59.912;30.300;2023-02-05T02:37:30;103114.63;;;-1.88;65.78
35918;BME280;22011;59.912;30.300;2023-02-05T02:40:08;103119.84;;;-1.88;65.86
35918;BME280;22011;59.912;30.300;2023-02-05T02:42:41;103117.38;;;-1.96;65.84
35918;BME280;22011;59.912;30.300;2023-02-05T02:45:14;103115.75;;;-2.03;65.59
35918;BME280;22011;59.912;30.300;2023-02-05T02:47:51;103117.47;;;-2.02;65.00
35918;BME280;22011;59.912;30.300;2023-02-05T02:50:23;103118.31;;;-2.00;64.43
35918;BME280;22011;59.912;30.300;2023-02-05T02:52:53;103120.94;;;-2.02;65.11
35918;BME280;22011;59.912;30.300;2023-02-05T02:55:22;103122.69;;;-2.02;64.70
35918;BME280;22011;59.912;30.300;2023-02-05T02:57:52;103121.88;;;-2.04;64.26
35918;BME280;22011;59.912;30.300;2023-02-05T03:00:23;103123.63;;;-2.06;64.90
35918;BME280;22011;59.912;30.300;2023-02-05T03:02:56;103122.88;;;-2.10;65.15
35918;BME280;22011;59.912;30.300;2023-02-05T03:05:27;103118.56;;;-2.12;64.74
35918;BME280;22011;59.912;30.300;2023-02-05T03:08:00;103116.69;;;-2.07;64.70
35918;BME280;22011;59.912;30.300;2023-02-05T03:10:35;103127.03;;;-2.01;65.49
35918;BME280;22011;59.912;30.300;2023-02-05T03:13:07;103127.38;;;-2.19;64.59
35918;BME280;22011;59.912;30.300;2023-02-05T03:15:37;103133.38;;;-2.14;65.38
35918;BME280;22011;59.912;30.300;2023-02-05T03:18:07;103126.53;;;-2.20;65.22
35918;BME280;22011;59.912;30.300;2023-02-05T03:20:40;103123.88;;;-2.18;65.24
35918;BME280;22011;59.912;30.300;2023-02-05T03:23:09;103126.69;;;-2.31;65.64
35918;BME280;22011;59.912;30.300;2023-02-05T03:25:36;103129.28;;;-2.29;65.92
35918;BME280;22011;59.912;30.300;2023-02-05T03:28:08;103127.56;;;-2.30;65.04
35918;BME280;22011;59.912;30.300;2023-02-05T03:30:51;103124.81;;;-2.22;64.93
35918;BME280;22011;59.912;30.300;2023-02-05T03:33:28;103130.16;;;-2.28;65.49
35918;BME280;22011;59.912;30.300;2023-02-05T03:36:08;103128.28;;;-2.22;65.63
35918;BME280;22011;59.912;30.300;2023-02-05T03:38:48;103143.06;;;-2.19;66.27
35918;BME280;22011;59.912;30.300;2023-02-05T03:41:19;103142.75;;;-2.04;66.83
35918;BME280;22011;59.912;30.300;2023-02-05T03:44:21;103143.84;;;-2.14;66.64
35918;BME280;22011;59.912;30.300;2023-02-05T03:46:59;103141.44;;;-2.26;66.48
35918;BME280;22011;59.912;30.300;2023-02-05T03:49:37;103150.38;;;-2.43;66.06
35918;BME280;22011;59.912;30.300;2023-02-05T03:52:11;103161.94;;;-2.59;66.42
35918;BME280;22011;59.912;30.300;2023-02-05T03:54:45;103163.88;;;-2.73;66.84
35918;BME280;22011;59.912;30.300;2023-02-05T03:57:21;103166.25;;;-2.56;67.59
35918;BME280;22011;59.912;30.300;2023-02-05T03:59:51;103169.34;;;-2.91;66.66
35918;BME280;22011;59.912;30.300;2023-02-05T04:02:21;103179.88;;;-2.98;66.60
35918;BME280;22011;59.912;30.300;2023-02-05T04:04:49;103185.28;;;-3.13;67.09
35918;BME280;22011;59.912;30.300;2023-02-05T04:07:17;103181.06;;;-3.23;68.32
35918;BME280;22011;59.912;30.300;2023-02-05T04:09:47;103186.38;;;-3.31;68.25
35918;BME280;22011;59.912;30.300;2023-02-05T04:12:15;103183.00;;;-3.39;68.11
35918;BME280;22011;59.912;30.300;2023-02-05T04:14:42;103190.03;;;-3.48;68.13
35918;BME280;22011;59.912;30.300;2023-02-05T04:17:11;103191.84;;;-3.55;68.69
35918;BME280;22011;59.912;30.300;2023-02-05T04:19:41;103191.78;;;-3.49;69.41
35918;BME280;22011;59.912;30.300;2023-02-05T04:22:11;103190.91;;;-3.48;68.66
35918;BME280;22011;59.912;30.300;2023-02-05T04:24:42;103199.53;;;-3.43;68.52
35918;BME280;22011;59.912;30.300;2023-02-05T04:27:10;103203.06;;;-3.48;68.21
35918;BME280;22011;59.912;30.300;2023-02-05T04:29:38;103206.53;;;-3.46;68.68
35918;BME280;22011;59.912;30.300;2023-02-05T04:32:06;103209.13;;;-3.46;68.13
35918;BME280;22011;59.912;30.300;2023-02-05T04:34:34;103211.78;;;-3.49;68.13
35918;BME280;22011;59.912;30.300;2023-02-05T04:37:05;103217.88;;;-3.53;68.17
35918;BME280;22011;59.912;30.300;2023-02-05T04:39:32;103219.69;;;-3.58;68.60
35918;BME280;22011;59.912;30.300;2023-02-05T04:42:00;103220.56;;;-3.59;68.99
35918;BME280;22011;59.912;30.300;2023-02-05T04:44:27;103229.25;;;-3.60;68.96
35918;BME280;22011;59.912;30.300;2023-02-05T04:46:55;103223.19;;;-3.64;68.71
35918;BME280;22011;59.912;30.300;2023-02-05T04:49:22;103225.91;;;-3.75;68.21
35918;BME280;22011;59.912;30.300;2023-02-05T04:51:50;103226.84;;;-3.83;68.86
35918;BME280;22011;59.912;30.300;2023-02-05T04:54:19;103221.59;;;-3.77;69.15
35918;BME280;22011;59.912;30.300;2023-02-05T04:56:46;103229.34;;;-3.70;69.81
35918;BME280;22011;59.912;30.300;2023-02-05T04:59:14;103227.56;;;-3.65;68.68
35918;BME280;22011;59.912;30.300;2023-02-05T05:01:41;103220.59;;;-3.66;68.42
35918;BME280;22011;59.912;30.300;2023-02-05T05:04:09;103220.66;;;-3.70;68.18
35918;BME280;22011;59.912;30.300;2023-02-05T05:06:36;103225.97;;;-3.82;67.81
35918;BME280;22011;59.912;30.300;2023-02-05T05:09:03;103230.44;;;-3.97;68.33
35918;BME280;22011;59.912;30.300;2023-02-05T05:11:32;103222.69;;;-4.07;68.71
35918;BME280;22011;59.912;30.300;2023-02-05T05:14:00;103225.41;;;-4.19;68.54
35918;BME280;22011;59.912;30.300;2023-02-05T05:16:27;103223.75;;;-4.30;68.86
35918;BME280;22011;59.912;30.300;2023-02-05T05:18:55;103227.25;;;-4.35;69.24
35918;BME280;22011;59.912;30.300;2023-02-05T05:21:23;103219.50;;;-4.44;69.49
35918;BME280;22011;59.912;30.300;2023-02-05T05:23:50;103219.50;;;-4.41;70.07
35918;BME280;22011;59.912;30.300;2023-02-05T05:26:18;103223.81;;;-4.42;69.62
35918;BME280;22011;59.912;30.300;2023-02-05T05:28:46;103222.91;;;-4.32;70.08
35918;BME280;22011;59.912;30.300;2023-02-05T05:31:15;103218.56;;;-4.33;70.18
35918;BME280;22011;59.912;30.300;2023-02-05T05:33:44;103225.47;;;-4.27;69.76
35918;BME280;22011;59.912;30.300;2023-02-05T05:36:12;103219.34;;;-4.21;69.38
35918;BME280;22011;59.912;30.300;2023-02-05T05:38:40;103211.47;;;-4.15;69.50
35918;BME280;22011;59.912;30.300;2023-02-05T05:41:09;103216.69;;;-4.15;69.69
35918;BME280;22011;59.912;30.300;2023-02-05T05:44:02;103224.53;;;-4.18;69.70
35918;BME280;22011;59.912;30.300;2023-02-05T05:46:30;103211.47;;;-4.15;70.14
35918;BME280;22011;59.912;30.300;2023-02-05T05:48:59;103211.44;;;-4.11;70.31
35918;BME280;22011;59.912;30.300;2023-02-05T05:51:28;103213.13;;;-4.05;70.26
35918;BME280;22011;59.912;30.300;2023-02-05T05:53:55;103212.22;;;-4.01;69.67
35918;BME280;22011;59.912;30.300;2023-02-05T05:56:23;103219.16;;;-4.00;69.11
35918;BME280;22011;59.912;30.300;2023-02-05T05:58:51;103232.16;;;-3.96;69.04
35918;BME280;22011;59.912;30.300;2023-02-05T06:01:20;103233.00;;;-3.93;68.67
35918;BME280;22011;59.912;30.300;2023-02-05T06:03:48;103236.53;;;-4.01;68.84
35918;BME280;22011;59.912;30.300;2023-02-05T06:06:15;103227.91;;;-4.07;68.88
35918;BME280;22011;59.912;30.300;2023-02-05T06:08:43;103238.44;;;-4.19;69.01
35918;BME280;22011;59.912;30.300;2023-02-05T06:11:10;103232.31;;;-4.15;69.84
35918;BME280;22011;59.912;30.300;2023-02-05T06:13:38;103237.56;;;-4.17;69.49
35918;BME280;22011;59.912;30.300;2023-02-05T06:16:06;103236.72;;;-4.20;69.58
35918;BME280;22011;59.912;30.300;2023-02-05T06:18:35;103245.41;;;-4.24;69.28
35918;BME280;22011;59.912;30.300;2023-02-05T06:21:03;103239.38;;;-4.30;69.61
35918;BME280;22011;59.912;30.300;2023-02-05T06:23:31;103242.81;;;-4.26;69.86
35918;BME280;22011;59.912;30.300;2023-02-05T06:25:58;103231.56;;;-4.30;69.84
35918;BME280;22011;59.912;30.300;2023-02-05T06:28:26;103232.44;;;-4.29;69.38
35918;BME280;22011;59.912;30.300;2023-02-05T06:30:53;103233.25;;;-4.22;69.91
35918;BME280;22011;59.912;30.300;2023-02-05T06:33:21;103234.13;;;-4.22;69.65
35918;BME280;22011;59.912;30.300;2023-02-05T06:35:49;103224.59;;;-4.24;69.89
35918;BME280;22011;59.912;30.300;2023-02-05T06:38:17;103228.09;;;-4.29;70.22
35918;BME280;22011;59.912;30.300;2023-02-05T06:40:45;103223.75;;;-4.30;70.12
35918;BME280;22011;59.912;30.300;2023-02-05T06:43:13;103235.91;;;-4.32;70.04
35918;BME280;22011;59.912;30.300;2023-02-05T06:45:41;103236.75;;;-4.30;70.10
35918;BME280;22011;59.912;30.300;2023-02-05T06:48:08;103235.88;;;-4.29;70.06
35918;BME280;22011;59.912;30.300;2023-02-05T06:50:35;103242.81;;;-4.26;70.50
35918;BME280;22011;59.912;30.300;2023-02-05T06:53:04;103237.56;;;-4.20;70.54
35918;BME280;22011;59.912;30.300;2023-02-05T06:55:32;103235.84;;;-4.21;70.13
35918;BME280;22011;59.912;30.300;2023-02-05T06:57:59;103240.16;;;-4.17;69.36
35918;BME280;22011;59.912;30.300;2023-02-05T07:00:28;103226.19;;;-4.10;70.39
35918;BME280;22011;59.912;30.300;2023-02-05T07:02:55;103222.66;;;-4.04;70.40
35918;BME280;22011;59.912;30.300;2023-02-05T07:05:23;103223.59;;;-4.10;69.70
35918;BME280;22011;59.912;30.300;2023-02-05T07:07:50;103224.41;;;-4.03;69.36
35918;BME280;22011;59.912;30.300;2023-02-05T07:10:19;103226.06;;;-3.93;69.46
35918;BME280;22011;59.912;30.300;2023-02-05T07:12:47;103229.44;;;-3.82;69.77
35918;BME280;22011;59.912;30.300;2023-02-05T07:15:14;103233.72;;;-3.75;68.89
35918;BME280;22011;59.912;30.300;2023-02-05T07:17:42;103235.41;;;-3.69;68.51
35918;BME280;22011;59.912;30.300;2023-02-05T07:20:10;103237.19;;;-3.74;68.61
35918;BME280;22011;59.912;30.300;2023-02-05T07:22:37;103232.91;;;-3.80;68.67
35918;BME280;22011;59.912;30.300;2023-02-05T07:25:06;103226.03;;;-3.90;68.94
35918;BME280;22011;59.912;30.300;2023-02-05T07:27:35;103221.69;;;-3.89;69.20
35918;BME280;22011;59.912;30.300;2023-02-05T07:30:03;103215.59;;;-3.87;69.62
35918;BME280;22011;59.912;30.300;2023-02-05T07:32:31;103208.66;;;-3.88;69.64
35918;BME280;22011;59.912;30.300;2023-02-05T07:34:59;103215.63;;;-3.91;69.15
35918;BME280;22011;59.912;30.300;2023-02-05T07:37:26;103212.13;;;-3.89;69.33
35918;BME280;22011;59.912;30.300;2023-02-05T07:39:54;103215.59;;;-3.87;69.11
35918;BME280;22011;59.912;30.300;2023-02-05T07:42:21;103216.50;;;-3.92;68.99
35918;BME280;22011;59.912;30.300;2023-02-05T07:44:56;103212.13;;;-3.87;69.55
35918;BME280;22011;59.912;30.300;2023-02-05T07:47:24;103218.31;;;-4.04;69.02
35918;BME280;22011;59.912;30.300;2023-02-05T07:49:51;103219.19;;;-4.03;68.34
35918;BME280;22011;59.912;30.300;2023-02-05T07:52:19;103212.31;;;-4.10;68.51
35918;BME280;22011;59.912;30.300;2023-02-05T07:54:46;103214.03;;;-4.09;69.03
35918;BME280;22011;59.912;30.300;2023-02-05T07:57:14;103205.38;;;-4.14;69.03
35918;BME280;22011;59.912;30.300;2023-02-05T07:59:41;103206.22;;;-4.11;69.56
35918;BME280;22011;59.912;30.300;2023-02-05T08:02:10;103217.47;;;-4.04;69.11
35918;BME280;22011;59.912;30.300;2023-02-05T08:04:38;103216.53;;;-3.97;69.33
35918;BME280;22011;59.912;30.300;2023-02-05T08:07:05;103213.03;;;-3.95;69.37
35918;BME280;22011;59.912;30.300;2023-02-05T08:09:34;103219.06;;;-3.88;68.42
35918;BME280;22011;59.912;30.300;2023-02-05T08:12:02;103217.34;;;-3.89;68.52
35918;BME280;22011;59.912;30.300;2023-02-05T08:14:30;103222.56;;;-3.89;68.92
35918;BME280;22011;59.912;30.300;2023-02-05T08:16:58;103225.19;;;-3.95;68.56
35918;BME280;22011;59.912;30.300;2023-02-05T08:19:27;103226.88;;;-3.88;68.84
35918;BME280;22011;59.912;30.300;2023-02-05T08:21:54;103222.56;;;-3.92;68.18
35918;BME280;22011;59.912;30.300;2023-02-05T08:24:22;103221.75;;;-3.97;68.01
35918;BME280;22011;59.912;30.300;2023-02-05T08:26:49;103223.50;;;-3.98;68.93
35918;BME280;22011;59.912;30.300;2023-02-05T08:29:17;103217.44;;;-4.01;69.10
35918;BME280;22011;59.912;30.300;2023-02-05T08:31:44;103217.44;;;-4.00;68.70
35918;BME280;22011;59.912;30.300;2023-02-05T08:34:11;103218.22;;;-3.90;69.20
35918;BME280;22011;59.912;30.300;2023-02-05T08:36:40;103223.41;;;-3.87;69.08
35918;BME280;22011;59.912;30.300;2023-02-05T08:39:08;103221.66;;;-3.85;68.39
35918;BME280;22011;59.912;30.300;2023-02-05T08:41:36;103221.59;;;-3.79;69.11
35918;BME280;22011;59.912;30.300;2023-02-05T08:44:04;103223.31;;;-3.78;69.10
35918;BME280;22011;59.912;30.300;2023-02-05T08:46:31;103223.34;;;-3.79;68.88
35918;BME280;22011;59.912;30.300;2023-02-05T08:48:59;103234.59;;;-3.76;69.23
35918;BME280;22011;59.912;30.300;2023-02-05T08:51:26;103229.44;;;-3.80;68.74
35918;BME280;22011;59.912;30.300;2023-02-05T08:53:56;103228.56;;;-3.82;68.28
35918;BME280;22011;59.912;30.300;2023-02-05T08:56:24;103230.28;;;-3.78;68.47
35918;BME280;22011;59.912;30.300;2023-02-05T08:58:52;103231.13;;;-3.78;69.00
35918;BME280;22011;59.912;30.300;2023-02-05T09:01:19;103223.34;;;-3.79;68.79
35918;BME280;22011;59.912;30.300;2023-02-05T09:03:47;103220.72;;;-3.78;68.08
35918;BME280;22011;59.912;30.300;2023-02-05T09:06:15;103214.59;;;-3.72;68.11
35918;BME280;22011;59.912;30.300;2023-02-05T09:08:42;103208.50;;;-3.70;68.21
35918;BME280;22011;59.912;30.300;2023-02-05T09:11:11;103200.59;;;-3.60;68.56
35918;BME280;22011;59.912;30.300;2023-02-05T09:13:39;103202.44;;;-3.73;68.48
35918;BME280;22011;59.912;30.300;2023-02-05T09:16:09;103186.78;;;-3.72;68.59
35918;BME280;22011;59.912;30.300;2023-02-05T09:18:37;103183.28;;;-3.68;68.52
35918;BME280;22011;59.912;30.300;2023-02-05T09:21:06;103190.22;;;-3.65;68.71
35918;BME280;22011;59.912;30.300;2023-02-05T09:23:34;103192.84;;;-3.70;68.33
35918;BME280;22011;59.912;30.300;2023-02-05T09:26:02;103197.19;;;-3.67;67.84
35918;BME280;22011;59.912;30.300;2023-02-05T09:28:31;103197.13;;;-3.63;67.56
35918;BME280;22011;59.912;30.300;2023-02-05T09:31:04;103191.88;;;-3.58;67.74
35918;BME280;22011;59.912;30.300;2023-02-05T09:33:33;103191.00;;;-3.58;67.58
35918;BME280;22011;59.912;30.300;2023-02-05T09:36:04;103195.22;;;-3.44;68.18
35918;BME280;22011;59.912;30.300;2023-02-05T09:38:32;103201.25;;;-3.40;67.43
35918;BME280;22011;59.912;30.300;2023-02-05T09:41:02;103186.41;;;-3.35;67.70
35918;BME280;22011;59.912;30.300;2023-02-05T09:43:43;103186.31;;;-3.26;67.24
35918;BME280;22011;59.912;30.300;2023-02-05T09:46:20;103186.38;;;-3.31;67.27
35918;BME280;22011;59.912;30.300;2023-02-05T09:48:56;103174.31;;;-3.39;67.09
35918;BME280;22011;59.912;30.300;2023-02-05T09:51:31;103172.56;;;-3.40;67.75
35918;BME280;22011;59.912;30.300;2023-02-05T09:54:04;103165.56;;;-3.34;68.04
35918;BME280;22011;59.912;30.300;2023-02-05T09:56:33;103160.34;;;-3.34;66.99
35918;BME280;22011;59.912;30.300;2023-02-05T09:59:03;103146.31;;;-3.23;66.78
35918;BME280;22011;59.912;30.300;2023-02-05T10:01:42;103147.84;;;-3.10;67.45
35918;BME280;22011;59.912;30.300;2023-02-05T10:04:13;103158.44;;;-3.19;66.26
35918;BME280;22011;59.912;30.300;2023-02-05T10:06:51;103145.22;;;-3.07;65.75
35918;BME280;22011;59.912;30.300;2023-02-05T10:09:39;103137.28;;;-3.00;66.92
35918;BME280;22011;59.912;30.300;2023-02-05T10:12:16;103133.91;;;-3.06;65.97
35918;BME280;22011;59.912;30.300;2023-02-05T10:14:58;103126.91;;;-3.04;65.66
35918;BME280;22011;59.912;30.300;2023-02-05T10:17:41;103135.66;;;-3.08;65.25
35918;BME280;22011;59.912;30.300;2023-02-05T10:20:26;103134.81;;;-3.09;65.91
35918;BME280;22011;59.912;30.300;2023-02-05T10:23:06;103135.75;;;-3.13;64.99
35918;BME280;22011;59.912;30.300;2023-02-05T10:25:51;103127.84;;;-3.10;65.81
35918;BME280;22011;59.912;30.300;2023-02-05T10:28:36;103123.47;;;-3.08;66.20
35918;BME280;22011;59.912;30.300;2023-02-05T10:31:11;103122.72;;;-3.14;65.55
35918;BME280;22011;59.912;30.300;2023-02-05T10:33:46;103116.59;;;-3.12;65.34
35918;BME280;22011;59.912;30.300;2023-02-05T10:36:20;103111.31;;;-3.09;65.25
35918;BME280;22011;59.912;30.300;2023-02-05T10:38:49;103104.53;;;-3.17;65.38
35918;BME280;22011;59.912;30.300;2023-02-05T10:41:21;103101.91;;;-3.16;65.64
35918;BME280;22011;59.912;30.300;2023-02-05T10:43:52;103095.88;;;-3.21;65.04
35918;BME280;22011;59.912;30.300;2023-02-05T10:46:31;103087.00;;;-3.11;65.07
35918;BME280;22011;59.912;30.300;2023-02-05T10:49:05;103087.00;;;-3.11;64.73
35918;BME280;22011;59.912;30.300;2023-02-05T10:51:39;103085.28;;;-3.12;65.15
35918;BME280;22011;59.912;30.300;2023-02-05T10:54:16;103073.06;;;-3.07;64.15
35918;BME280;22011;59.912;30.300;2023-02-05T10:56:44;103064.38;;;-3.09;64.18
35918;BME280;22011;59.912;30.300;2023-02-05T10:59:19;103064.19;;;-2.95;62.67
35918;BME280;22011;59.912;30.300;2023-02-05T11:01:49;103054.75;;;-3.04;62.85
35918;BME280;22011;59.912;30.300;2023-02-05T11:04:23;103046.91;;;-3.02;63.33
35918;BME280;22011;59.912;30.300;2023-02-05T11:06:53;103046.13;;;-3.09;63.57
35918;BME280;22011;59.912;30.300;2023-02-05T11:09:31;103053.78;;;-2.97;63.88
35918;BME280;22011;59.912;30.300;2023-02-05T11:12:01;103046.25;;;-3.15;62.88
35918;BME280;22011;59.912;30.300;2023-02-05T11:14:35;103053.13;;;-3.11;63.55
35918;BME280;22011;59.912;30.300;2023-02-05T11:17:08;103039.28;;;-3.13;63.12
35918;BME280;22011;59.912;30.300;2023-02-05T11:19:51;103036.59;;;-3.11;63.41
35918;BME280;22011;59.912;30.300;2023-02-05T11:22:25;103033.06;;;-3.07;63.79
35918;BME280;22011;59.912;30.300;2023-02-05T11:25:04;103019.91;;;-2.98;63.99
35918;BME280;22011;59.912;30.300;2023-02-05T11:27:31;103007.75;;;-3.01;62.10
35918;BME280;22011;59.912;30.300;2023-02-05T11:30:17;103000.63;;;-2.89;62.08
35918;BME280;22011;59.912;30.300;2023-02-05T11:32:46;102994.72;;;-3.01;62.42
35918;BME280;22011;59.912;30.300;2023-02-05T11:35:19;103005.09;;;-2.98;63.33
35918;BME280;22011;59.912;30.300;2023-02-05T11:37:49;102999.97;;;-3.04;63.07
35918;BME280;22011;59.912;30.300;2023-02-05T11:40:22;102991.28;;;-3.03;63.31
35918;BME280;22011;59.912;30.300;2023-02-05T11:42:58;102984.09;;;-2.88;62.18
35918;BME280;22011;59.912;30.300;2023-02-05T11:45:27;102978.88;;;-2.88;60.96
35918;BME280;22011;59.912;30.300;2023-02-05T11:47:59;102986.59;;;-2.82;61.53
35918;BME280;22011;59.912;30.300;2023-02-05T11:50:28;102988.53;;;-2.93;61.54
35918;BME280;22011;59.912;30.300;2023-02-05T11:53:07;102965.88;;;-2.91;62.79
35918;BME280;22011;59.912;30.300;2023-02-05T11:55:39;102970.31;;;-2.97;61.11
35918;BME280;22011;59.912;30.300;2023-02-05T11:58:22;102974.41;;;-2.80;61.73
35918;BME280;22011;59.912;30.300;2023-02-05T12:00:51;102969.47;;;-2.99;61.81
35918;BME280;22011;59.912;30.300;2023-02-05T12:03:20;102969.56;;;-3.05;61.91
35918;BME280;22011;59.912;30.300;2023-02-05T12:05:52;102965.25;;;-3.06;62.27
35918;BME280;22011;59.912;30.300;2023-02-05T12:08:31;102960.69;;;-2.93;61.19
35918;BME280;22011;59.912;30.300;2023-02-05T12:11:12;102964.97;;;-2.89;61.48
35918;BME280;22011;59.912;30.300;2023-02-05T12:13:55;102957.97;;;-2.87;61.96
35918;BME280;22011;59.912;30.300;2023-02-05T12:16:38;102952.84;;;-2.91;62.50
35918;BME280;22011;59.912;30.300;2023-02-05T12:19:16;102954.63;;;-2.95;62.40
35918;BME280;22011;59.912;30.300;2023-02-05T12:21:48;102958.94;;;-2.92;62.50
35918;BME280;22011;59.912;30.300;2023-02-05T12:24:31;102961.44;;;-2.86;62.55
35918;BME280;22011;59.912;30.300;2023-02-05T12:27:12;102958.81;;;-2.85;62.39
35918;BME280;22011;59.912;30.300;2023-02-05T12:29:54;102950.09;;;-2.82;62.81
35918;BME280;22011;59.912;30.300;2023-02-05T12:32:34;102947.44;;;-2.81;63.65
35918;BME280;22011;59.912;30.300;2023-02-05T12:35:20;102946.41;;;-2.71;63.54
35918;BME280;22011;59.912;30.300;2023-02-05T12:37:53;102944.78;;;-2.78;62.60
35918;BME280;22011;59.912;30.300;2023-02-05T12:40:37;102949.88;;;-2.70;63.13
35918;BME280;22011;59.912;30.300;2023-02-05T12:43:13;102943.88;;;-2.75;62.95
35918;BME280;22011;59.912;30.300;2023-02-05T12:45:51;102939.50;;;-2.75;63.43
35918;BME280;22011;59.912;30.300;2023-02-05T12:48:39;102938.47;;;-2.65;63.84
35918;BME280;22011;59.912;30.300;2023-02-05T12:51:20;102936.78;;;-2.67;63.61
35918;BME280;22011;59.912;30.300;2023-02-05T12:54:01;102937.63;;;-2.67;63.76
35918;BME280;22011;59.912;30.300;2023-02-05T12:56:50;102939.31;;;-2.64;63.67
35918;BME280;22011;59.912;30.300;2023-02-05T12:59:29;102937.53;;;-2.62;63.48
35918;BME280;22011;59.912;30.300;2023-02-05T13:02:00;102940.97;;;-2.58;63.51